sensor_id;sensor_type;location;lat;lon;timestamp;P1;durP1;ratioP1;P2;durP2;ratioP2
44000;SDS011;29660;42.892;24.710;2023-12-20T00:03:05;65.82;;;42.67;;
44000;SDS011;29660;42.892;24.710;2023-12-20T00:08:27;58.70;;;38.65;;
44000;SDS011;29660;42.892;24.710;2023-12-20T00:13:49;55.80;;;35.50;;
44000;SDS011;29660;42.892;24.710;2023-12-20T00:19:12;68.40;;;47.60;;
44000;SDS011;29660;42.892;24.710;2023-12-20T00:24:34;63.97;;;45.33;;
44000;SDS011;29660;42.892;24.710;2023-12-20T00:29:57;52.00;;;34.33;;
44000;SDS011;29660;42.892;24.710;2023-12-20T00:35:19;47.33;;;31.40;;
44000;SDS011;29660;42.892;24.710;2023-12-20T00:40:41;37.50;;;26.15;;
44000;SDS011;29660;42.892;24.710;2023-12-20T00:46:03;28.85;;;21.08;;
44000;SDS011;29660;42.892;24.710;2023-12-20T00:51:25;33.20;;;23.35;;
44000;SDS011;29660;42.892;24.710;2023-12-20T00:56:48;31.05;;;21.42;;
44000;SDS011;29660;42.892;24.710;2023-12-20T01:02:10;26.25;;;17.90;;
44000;SDS011;29660;42.892;24.710;2023-12-20T01:07:32;35.78;;;25.50;;
44000;SDS011;29660;42.892;24.710;2023-12-20T01:12:54;31.38;;;22.80;;
44000;SDS011;29660;42.892;24.710;2023-12-20T01:18:16;32.33;;;23.05;;
44000;SDS011;29660;42.892;24.710;2023-12-20T01:23:39;33.75;;;22.02;;
44000;SDS011;29660;42.892;24.710;2023-12-20T01:29:01;28.48;;;19.20;;
44000;SDS011;29660;42.892;24.710;2023-12-20T01:34:23;22.55;;;15.32;;
44000;SDS011;29660;42.892;24.710;2023-12-20T01:39:45;19.27;;;13.43;;
44000;SDS011;29660;42.892;24.710;2023-12-20T01:45:08;29.83;;;18.38;;
44000;SDS011;29660;42.892;24.710;2023-12-20T01:50:31;22.23;;;16.02;;
44000;SDS011;29660;42.892;24.710;2023-12-20T01:55:54;31.00;;;21.73;;
44000;SDS011;29660;42.892;24.710;2023-12-20T02:01:18;30.15;;;19.33;;
44000;SDS011;29660;42.892;24.710;2023-12-20T02:06:40;50.42;;;29.45;;
44000;SDS011;29660;42.892;24.710;2023-12-20T02:12:02;84.65;;;45.22;;
44000;SDS011;29660;42.892;24.710;2023-12-20T02:17:25;55.35;;;31.30;;
44000;SDS011;29660;42.892;24.710;2023-12-20T02:22:47;53.42;;;31.88;;
44000;SDS011;29660;42.892;24.710;2023-12-20T02:28:10;48.25;;;31.35;;
44000;SDS011;29660;42.892;24.710;2023-12-20T02:33:32;24.42;;;16.55;;
44000;SDS011;29660;42.892;24.710;2023-12-20T02:38:54;33.97;;;22.15;;
44000;SDS011;29660;42.892;24.710;2023-12-20T02:44:16;34.38;;;23.98;;
44000;SDS011;29660;42.892;24.710;2023-12-20T02:49:38;34.70;;;23.90;;
44000;SDS011;29660;42.892;24.710;2023-12-20T02:55:00;44.40;;;30.05;;
44000;SDS011;29660;42.892;24.710;2023-12-20T03:00:23;41.05;;;29.13;;
44000;SDS011;29660;42.892;24.710;2023-12-20T03:05:45;45.47;;;30.67;;
44000;SDS011;29660;42.892;24.710;2023-12-20T03:11:08;46.80;;;29.30;;
44000;SDS011;29660;42.892;24.710;2023-12-20T03:16:30;51.80;;;33.17;;
44000;SDS011;29660;42.892;24.710;2023-12-20T03:21:57;37.15;;;20.80;;
44000;SDS011;29660;42.892;24.710;2023-12-20T03:27:21;38.45;;;22.42;;
44000;SDS011;29660;42.892;24.710;2023-12-20T03:32:44;40.17;;;24.83;;
44000;SDS011;29660;42.892;24.710;2023-12-20T03:38:06;33.20;;;20.33;;
44000;SDS011;29660;42.892;24.710;2023-12-20T03:43:28;27.65;;;16.85;;
44000;SDS011;29660;42.892;24.710;2023-12-20T03:48:52;16.63;;;10.48;;
44000;SDS011;29660;42.892;24.710;2023-12-20T03:54:14;16.67;;;11.32;;
44000;SDS011;29660;42.892;24.710;2023-12-20T03:59:36;26.63;;;18.08;;
44000;SDS011;29660;42.892;24.710;2023-12-20T04:04:59;36.63;;;24.13;;
44000;SDS011;29660;42.892;24.710;2023-12-20T04:10:21;56.22;;;38.47;;
44000;SDS011;29660;42.892;24.710;2023-12-20T04:15:43;49.42;;;34.50;;
44000;SDS011;29660;42.892;24.710;2023-12-20T04:21:06;41.85;;;28.48;;
44000;SDS011;29660;42.892;24.710;2023-12-20T04:26:29;52.55;;;36.85;;
44000;SDS011;29660;42.892;24.710;2023-12-20T04:31:51;53.15;;;34.85;;
44000;SDS011;29660;42.892;24.710;2023-12-20T04:37:13;50.97;;;32.97;;
44000;SDS011;29660;42.892;24.710;2023-12-20T04:42:35;42.85;;;24.27;;
44000;SDS011;29660;42.892;24.710;2023-12-20T04:47:57;54.92;;;33.17;;
44000;SDS011;29660;42.892;24.710;2023-12-20T04:53:20;66.40;;;41.05;;
44000;SDS011;29660;42.892;24.710;2023-12-20T04:58:42;75.68;;;45.53;;
44000;SDS011;29660;42.892;24.710;2023-12-20T05:04:04;87.50;;;53.53;;
44000;SDS011;29660;42.892;24.710;2023-12-20T05:09:27;88.22;;;56.13;;
44000;SDS011;29660;42.892;24.710;2023-12-20T05:14:49;74.03;;;48.38;;
44000;SDS011;29660;42.892;24.710;2023-12-20T05:20:11;69.63;;;47.42;;
44000;SDS011;29660;42.892;24.710;2023-12-20T05:25:33;112.50;;;74.55;;
44000;SDS011;29660;42.892;24.710;2023-12-20T05:30:55;101.20;;;65.00;;
44000;SDS011;29660;42.892;24.710;2023-12-20T05:36:18;108.45;;;68.68;;
44000;SDS011;29660;42.892;24.710;2023-12-20T05:41:40;97.85;;;69.10;;
44000;SDS011;29660;42.892;24.710;2023-12-20T05:47:02;132.95;;;88.43;;
44000;SDS011;29660;42.892;24.710;2023-12-20T05:52:24;87.05;;;57.30;;
44000;SDS011;29660;42.892;24.710;2023-12-20T05:57:47;202.80;;;118.07;;
44000;SDS011;29660;42.892;24.710;2023-12-20T06:03:10;180.35;;;116.07;;
44000;SDS011;29660;42.892;24.710;2023-12-20T06:08:32;94.55;;;68.72;;
44000;SDS011;29660;42.892;24.710;2023-12-20T06:13:54;94.00;;;70.25;;
44000;SDS011;29660;42.892;24.710;2023-12-20T06:19:16;63.45;;;43.20;;
44000;SDS011;29660;42.892;24.710;2023-12-20T06:24:38;69.78;;;47.97;;
44000;SDS011;29660;42.892;24.710;2023-12-20T06:30:00;90.25;;;64.53;;
44000;SDS011;29660;42.892;24.710;2023-12-20T06:35:22;178.20;;;128.70;;
44000;SDS011;29660;42.892;24.710;2023-12-20T06:40:45;166.30;;;112.47;;
44000;SDS011;29660;42.892;24.710;2023-12-20T06:46:07;169.90;;;122.57;;
44000;SDS011;29660;42.892;24.710;2023-12-20T06:51:30;194.23;;;138.95;;
44000;SDS011;29660;42.892;24.710;2023-12-20T06:56:52;139.50;;;105.20;;
44000;SDS011;29660;42.892;24.710;2023-12-20T07:02:15;185.93;;;118.53;;
44000;SDS011;29660;42.892;24.710;2023-12-20T07:07:37;190.65;;;132.77;;
44000;SDS011;29660;42.892;24.710;2023-12-20T07:12:59;175.60;;;123.07;;
44000;SDS011;29660;42.892;24.710;2023-12-20T07:18:21;161.95;;;115.07;;
44000;SDS011;29660;42.892;24.710;2023-12-20T07:23:43;165.70;;;121.57;;
44000;SDS011;29660;42.892;24.710;2023-12-20T07:29:05;179.80;;;130.98;;
44000;SDS011;29660;42.892;24.710;2023-12-20T07:34:29;133.93;;;96.22;;
44000;SDS011;29660;42.892;24.710;2023-12-20T07:39:52;140.43;;;103.95;;
44000;SDS011;29660;42.892;24.710;2023-12-20T07:45:15;168.93;;;121.65;;
44000;SDS011;29660;42.892;24.710;2023-12-20T07:50:38;146.15;;;107.97;;
44000;SDS011;29660;42.892;24.710;2023-12-20T07:56:00;161.65;;;123.57;;
44000;SDS011;29660;42.892;24.710;2023-12-20T08:01:22;131.82;;;96.85;;
44000;SDS011;29660;42.892;24.710;2023-12-20T08:06:44;132.50;;;98.07;;
44000;SDS011;29660;42.892;24.710;2023-12-20T08:12:07;128.45;;;98.22;;
44000;SDS011;29660;42.892;24.710;2023-12-20T08:17:29;136.68;;;104.45;;
44000;SDS011;29660;42.892;24.710;2023-12-20T08:22:51;200.02;;;148.55;;
44000;SDS011;29660;42.892;24.710;2023-12-20T08:28:13;147.23;;;112.50;;
44000;SDS011;29660;42.892;24.710;2023-12-20T08:33:35;150.32;;;114.53;;
44000;SDS011;29660;42.892;24.710;2023-12-20T08:38:57;186.40;;;135.45;;
44000;SDS011;29660;42.892;24.710;2023-12-20T08:44:22;167.13;;;129.00;;
44000;SDS011;29660;42.892;24.710;2023-12-20T08:49:44;128.07;;;99.82;;
44000;SDS011;29660;42.892;24.710;2023-12-20T08:55:08;141.40;;;111.53;;
44000;SDS011;29660;42.892;24.710;2023-12-20T09:00:32;150.48;;;116.68;;
44000;SDS011;29660;42.892;24.710;2023-12-20T09:05:54;117.32;;;86.80;;
44000;SDS011;29660;42.892;24.710;2023-12-20T09:11:16;136.55;;;100.13;;
44000;SDS011;29660;42.892;24.710;2023-12-20T09:16:39;144.57;;;105.55;;
44000;SDS011;29660;42.892;24.710;2023-12-20T09:22:01;153.50;;;118.65;;
44000;SDS011;29660;42.892;24.710;2023-12-20T09:27:23;182.98;;;140.02;;
44000;SDS011;29660;42.892;24.710;2023-12-20T09:32:45;168.90;;;131.23;;
44000;SDS011;29660;42.892;24.710;2023-12-20T09:38:08;181.88;;;138.27;;
44000;SDS011;29660;42.892;24.710;2023-12-20T09:43:31;274.92;;;205.63;;
44000;SDS011;29660;42.892;24.710;2023-12-20T09:48:57;258.48;;;174.63;;
44000;SDS011;29660;42.892;24.710;2023-12-20T09:54:22;173.60;;;122.68;;
44000;SDS011;29660;42.892;24.710;2023-12-20T09:59:45;128.68;;;94.07;;
44000;SDS011;29660;42.892;24.710;2023-12-20T10:05:07;106.90;;;77.85;;
44000;SDS011;29660;42.892;24.710;2023-12-20T10:10:33;135.40;;;109.50;;
44000;SDS011;29660;42.892;24.710;2023-12-20T10:15:59;107.60;;;78.32;;
44000;SDS011;29660;42.892;24.710;2023-12-20T10:21:24;152.70;;;119.13;;
44000;SDS011;29660;42.892;24.710;2023-12-20T10:27:00;178.48;;;137.85;;
44000;SDS011;29660;42.892;24.710;2023-12-20T10:32:26;176.43;;;132.90;;
44000;SDS011;29660;42.892;24.710;2023-12-20T10:37:50;159.68;;;121.13;;
44000;SDS011;29660;42.892;24.710;2023-12-20T10:43:17;165.57;;;122.75;;
44000;SDS011;29660;42.892;24.710;2023-12-20T10:48:39;175.27;;;129.88;;
44000;SDS011;29660;42.892;24.710;2023-12-20T10:54:03;185.30;;;138.90;;
44000;SDS011;29660;42.892;24.710;2023-12-20T10:59:25;249.20;;;182.25;;
44000;SDS011;29660;42.892;24.710;2023-12-20T11:04:59;187.30;;;148.52;;
44000;SDS011;29660;42.892;24.710;2023-12-20T11:10:42;164.77;;;131.75;;
44000;SDS011;29660;42.892;24.710;2023-12-20T11:16:14;135.77;;;110.00;;
44000;SDS011;29660;42.892;24.710;2023-12-20T11:21:36;129.50;;;105.07;;
44000;SDS011;29660;42.892;24.710;2023-12-20T11:26:59;155.27;;;123.28;;
44000;SDS011;29660;42.892;24.710;2023-12-20T11:37:48;179.25;;;141.73;;
44000;SDS011;29660;42.892;24.710;2023-12-20T11:43:11;199.82;;;159.30;;
44000;SDS011;29660;42.892;24.710;2023-12-20T11:48:39;172.20;;;140.85;;
44000;SDS011;29660;42.892;24.710;2023-12-20T11:54:02;191.55;;;155.50;;
44000;SDS011;29660;42.892;24.710;2023-12-20T11:59:24;186.60;;;151.95;;
44000;SDS011;29660;42.892;24.710;2023-12-20T12:04:48;203.05;;;172.65;;
44000;SDS011;29660;42.892;24.710;2023-12-20T12:10:10;228.43;;;197.40;;
44000;SDS011;29660;42.892;24.710;2023-12-20T12:15:33;234.82;;;208.00;;
44000;SDS011;29660;42.892;24.710;2023-12-20T12:21:01;205.35;;;179.35;;
44000;SDS011;29660;42.892;24.710;2023-12-20T12:26:30;240.93;;;214.38;;
44000;SDS011;29660;42.892;24.710;2023-12-20T12:31:52;234.25;;;207.70;;
44000;SDS011;29660;42.892;24.710;2023-12-20T12:37:14;168.68;;;143.68;;
44000;SDS011;29660;42.892;24.710;2023-12-20T12:42:40;121.47;;;100.72;;
44000;SDS011;29660;42.892;24.710;2023-12-20T12:48:03;125.95;;;103.97;;
44000;SDS011;29660;42.892;24.710;2023-12-20T12:53:26;461.40;;;347.95;;
44000;SDS011;29660;42.892;24.710;2023-12-20T12:58:48;200.02;;;146.38;;
44000;SDS011;29660;42.892;24.710;2023-12-20T13:04:11;139.20;;;104.35;;
44000;SDS011;29660;42.892;24.710;2023-12-20T13:09:33;149.35;;;105.93;;
44000;SDS011;29660;42.892;24.710;2023-12-20T13:14:56;136.77;;;99.15;;
44000;SDS011;29660;42.892;24.710;2023-12-20T13:20:18;140.07;;;101.00;;
44000;SDS011;29660;42.892;24.710;2023-12-20T13:25:41;129.48;;;98.47;;
44000;SDS011;29660;42.892;24.710;2023-12-20T13:31:03;129.32;;;96.95;;
44000;SDS011;29660;42.892;24.710;2023-12-20T13:36:25;334.77;;;255.45;;
44000;SDS011;29660;42.892;24.710;2023-12-20T13:41:48;158.50;;;109.32;;
44000;SDS011;29660;42.892;24.710;2023-12-20T13:47:10;125.72;;;90.05;;
44000;SDS011;29660;42.892;24.710;2023-12-20T13:52:32;144.18;;;101.97;;
44000;SDS011;29660;42.892;24.710;2023-12-20T13:57:57;158.05;;;113.30;;
44000;SDS011;29660;42.892;24.710;2023-12-20T14:03:19;183.32;;;119.18;;
44000;SDS011;29660;42.892;24.710;2023-12-20T14:08:42;147.95;;;105.10;;
44000;SDS011;29660;42.892;24.710;2023-12-20T14:14:04;126.18;;;92.53;;
44000;SDS011;29660;42.892;24.710;2023-12-20T14:19:26;210.80;;;142.85;;
44000;SDS011;29660;42.892;24.710;2023-12-20T14:24:49;217.70;;;152.75;;
44000;SDS011;29660;42.892;24.710;2023-12-20T14:30:11;216.80;;;149.23;;
44000;SDS011;29660;42.892;24.710;2023-12-20T14:35:36;169.10;;;126.75;;
44000;SDS011;29660;42.892;24.710;2023-12-20T14:40:58;157.23;;;117.18;;
44000;SDS011;29660;42.892;24.710;2023-12-20T14:46:20;186.43;;;139.93;;
44000;SDS011;29660;42.892;24.710;2023-12-20T14:51:45;205.52;;;149.13;;
44000;SDS011;29660;42.892;24.710;2023-12-20T14:57:09;210.15;;;149.20;;
44000;SDS011;29660;42.892;24.710;2023-12-20T15:02:32;238.55;;;166.10;;
44000;SDS011;29660;42.892;24.710;2023-12-20T15:07:54;166.40;;;119.60;;
44000;SDS011;29660;42.892;24.710;2023-12-20T15:13:16;197.32;;;126.65;;
44000;SDS011;29660;42.892;24.710;2023-12-20T15:18:38;320.55;;;212.82;;
44000;SDS011;29660;42.892;24.710;2023-12-20T15:24:00;235.85;;;161.00;;
44000;SDS011;29660;42.892;24.710;2023-12-20T15:29:35;236.80;;;161.95;;
44000;SDS011;29660;42.892;24.710;2023-12-20T15:34:57;298.73;;;206.93;;
44000;SDS011;29660;42.892;24.710;2023-12-20T15:40:20;266.85;;;186.32;;
44000;SDS011;29660;42.892;24.710;2023-12-20T15:45:42;249.93;;;176.40;;
44000;SDS011;29660;42.892;24.710;2023-12-20T15:51:13;292.95;;;206.75;;
44000;SDS011;29660;42.892;24.710;2023-12-20T15:56:36;275.70;;;201.52;;
44000;SDS011;29660;42.892;24.710;2023-12-20T16:01:58;319.63;;;255.68;;
44000;SDS011;29660;42.892;24.710;2023-12-20T16:07:21;175.80;;;129.50;;
44000;SDS011;29660;42.892;24.710;2023-12-20T16:12:43;189.98;;;137.60;;
44000;SDS011;29660;42.892;24.710;2023-12-20T16:18:05;162.10;;;121.93;;
44000;SDS011;29660;42.892;24.710;2023-12-20T16:23:31;147.35;;;113.35;;
44000;SDS011;29660;42.892;24.710;2023-12-20T16:28:53;194.63;;;145.18;;
44000;SDS011;29660;42.892;24.710;2023-12-20T16:34:15;195.85;;;151.73;;
44000;SDS011;29660;42.892;24.710;2023-12-20T16:39:37;188.88;;;141.55;;
44000;SDS011;29660;42.892;24.710;2023-12-20T16:44:59;287.08;;;222.63;;
44000;SDS011;29660;42.892;24.710;2023-12-20T16:50:22;290.30;;;223.07;;
44000;SDS011;29660;42.892;24.710;2023-12-20T16:55:44;268.63;;;202.98;;
44000;SDS011;29660;42.892;24.710;2023-12-20T17:01:06;245.05;;;185.10;;
44000;SDS011;29660;42.892;24.710;2023-12-20T17:06:30;255.43;;;191.52;;
44000;SDS011;29660;42.892;24.710;2023-12-20T17:11:53;252.27;;;191.95;;
44000;SDS011;29660;42.892;24.710;2023-12-20T17:17:15;267.23;;;201.52;;
44000;SDS011;29660;42.892;24.710;2023-12-20T17:22:37;277.33;;;200.88;;
44000;SDS011;29660;42.892;24.710;2023-12-20T17:28:00;248.18;;;176.85;;
44000;SDS011;29660;42.892;24.710;2023-12-20T17:33:22;316.90;;;228.43;;
44000;SDS011;29660;42.892;24.710;2023-12-20T17:38:44;328.05;;;250.63;;
44000;SDS011;29660;42.892;24.710;2023-12-20T17:44:06;310.73;;;231.57;;
44000;SDS011;29660;42.892;24.710;2023-12-20T17:49:28;358.52;;;267.88;;
44000;SDS011;29660;42.892;24.710;2023-12-20T17:54:53;383.85;;;286.23;;
44000;SDS011;29660;42.892;24.710;2023-12-20T18:00:19;232.23;;;171.68;;
44000;SDS011;29660;42.892;24.710;2023-12-20T18:05:42;190.60;;;143.10;;
44000;SDS011;29660;42.892;24.710;2023-12-20T18:11:04;252.35;;;186.70;;
44000;SDS011;29660;42.892;24.710;2023-12-20T18:16:26;265.20;;;195.25;;
44000;SDS011;29660;42.892;24.710;2023-12-20T18:21:49;316.02;;;218.20;;
44000;SDS011;29660;42.892;24.710;2023-12-20T18:27:11;320.17;;;223.50;;
44000;SDS011;29660;42.892;24.710;2023-12-20T18:32:34;286.98;;;209.15;;
44000;SDS011;29660;42.892;24.710;2023-12-20T18:37:57;296.90;;;210.55;;
44000;SDS011;29660;42.892;24.710;2023-12-20T18:43:19;276.88;;;205.63;;
44000;SDS011;29660;42.892;24.710;2023-12-20T18:48:42;262.77;;;190.98;;
44000;SDS011;29660;42.892;24.710;2023-12-20T18:54:06;249.82;;;161.65;;
44000;SDS011;29660;42.892;24.710;2023-12-20T18:59:28;223.10;;;142.73;;
44000;SDS011;29660;42.892;24.710;2023-12-20T19:04:51;285.65;;;177.45;;
44000;SDS011;29660;42.892;24.710;2023-12-20T19:10:13;281.38;;;175.00;;
44000;SDS011;29660;42.892;24.710;2023-12-20T19:15:36;302.48;;;191.13;;
44000;SDS011;29660;42.892;24.710;2023-12-20T19:20:58;284.35;;;181.43;;
44000;SDS011;29660;42.892;24.710;2023-12-20T19:26:20;307.00;;;199.40;;
44000;SDS011;29660;42.892;24.710;2023-12-20T19:31:43;306.33;;;187.80;;
44000;SDS011;29660;42.892;24.710;2023-12-20T19:37:08;325.55;;;198.88;;
44000;SDS011;29660;42.892;24.710;2023-12-20T19:42:32;288.05;;;186.27;;
44000;SDS011;29660;42.892;24.710;2023-12-20T19:47:58;319.48;;;203.32;;
44000;SDS011;29660;42.892;24.710;2023-12-20T19:53:20;284.08;;;190.30;;
44000;SDS011;29660;42.892;24.710;2023-12-20T19:58:45;310.70;;;210.68;;
44000;SDS011;29660;42.892;24.710;2023-12-20T20:04:07;251.73;;;174.60;;
44000;SDS011;29660;42.892;24.710;2023-12-20T20:09:29;250.00;;;176.85;;
44000;SDS011;29660;42.892;24.710;2023-12-20T20:14:51;280.23;;;196.40;;
44000;SDS011;29660;42.892;24.710;2023-12-20T20:20:15;255.07;;;182.98;;
44000;SDS011;29660;42.892;24.710;2023-12-20T20:25:37;220.82;;;152.57;;
44000;SDS011;29660;42.892;24.710;2023-12-20T20:30:59;254.43;;;172.57;;
44000;SDS011;29660;42.892;24.710;2023-12-20T20:36:21;205.52;;;143.90;;
44000;SDS011;29660;42.892;24.710;2023-12-20T20:41:43;194.18;;;123.18;;
44000;SDS011;29660;42.892;24.710;2023-12-20T20:47:07;220.55;;;144.40;;
44000;SDS011;29660;42.892;24.710;2023-12-20T20:52:29;223.75;;;154.15;;
44000;SDS011;29660;42.892;24.710;2023-12-20T20:57:51;205.23;;;132.40;;
44000;SDS011;29660;42.892;24.710;2023-12-20T21:03:13;198.00;;;129.38;;
44000;SDS011;29660;42.892;24.710;2023-12-20T21:08:35;178.45;;;118.68;;
44000;SDS011;29660;42.892;24.710;2023-12-20T21:13:58;151.85;;;104.47;;
44000;SDS011;29660;42.892;24.710;2023-12-20T21:19:20;142.57;;;104.05;;
44000;SDS011;29660;42.892;24.710;2023-12-20T21:24:42;136.88;;;98.45;;
44000;SDS011;29660;42.892;24.710;2023-12-20T21:30:06;172.52;;;120.70;;
44000;SDS011;29660;42.892;24.710;2023-12-20T21:35:29;209.38;;;148.20;;
44000;SDS011;29660;42.892;24.710;2023-12-20T21:42:16;216.77;;;145.57;;
44000;SDS011;29660;42.892;24.710;2023-12-20T21:47:38;266.98;;;169.88;;
44000;SDS011;29660;42.892;24.710;2023-12-20T21:53:00;246.90;;;163.73;;
44000;SDS011;29660;42.892;24.710;2023-12-20T21:58:22;220.90;;;146.80;;
44000;SDS011;29660;42.892;24.710;2023-12-20T22:03:44;192.90;;;130.70;;
44000;SDS011;29660;42.892;24.710;2023-12-20T22:09:06;127.13;;;84.57;;
44000;SDS011;29660;42.892;24.710;2023-12-20T22:14:30;139.93;;;93.13;;
44000;SDS011;29660;42.892;24.710;2023-12-20T22:19:53;150.43;;;101.60;;
44000;SDS011;29660;42.892;24.710;2023-12-20T22:25:16;143.90;;;102.82;;
44000;SDS011;29660;42.892;24.710;2023-12-20T22:30:38;158.63;;;108.47;;
44000;SDS011;29660;42.892;24.710;2023-12-20T22:36:00;185.90;;;124.22;;
44000;SDS011;29660;42.892;24.710;2023-12-20T22:41:22;169.20;;;108.80;;
44000;SDS011;29660;42.892;24.710;2023-12-20T22:46:45;119.03;;;79.45;;
44000;SDS011;29660;42.892;24.710;2023-12-20T22:52:07;82.20;;;51.83;;
44000;SDS011;29660;42.892;24.710;2023-12-20T22:57:30;74.07;;;50.50;;
44000;SDS011;29660;42.892;24.710;2023-12-20T23:02:52;91.55;;;55.40;;
44000;SDS011;29660;42.892;24.710;2023-12-20T23:08:15;79.35;;;50.30;;
44000;SDS011;29660;42.892;24.710;2023-12-20T23:13:37;104.03;;;67.57;;
44000;SDS011;29660;42.892;24.710;2023-12-20T23:18:59;93.90;;;62.65;;
44000;SDS011;29660;42.892;24.710;2023-12-20T23:24:21;96.72;;;61.33;;
44000;SDS011;29660;42.892;24.710;2023-12-20T23:29:44;92.97;;;61.15;;
44000;SDS011;29660;42.892;24.710;2023-12-20T23:35:06;79.63;;;55.22;;
44000;SDS011;29660;42.892;24.710;2023-12-20T23:40:33;85.28;;;56.22;;
44000;SDS011;29660;42.892;24.710;2023-12-20T23:45:55;126.32;;;80.15;;
44000;SDS011;29660;42.892;24.710;2023-12-20T23:51:17;152.15;;;94.22;;
44000;SDS011;29660;42.892;24.710;2023-12-20T23:56:39;174.60;;;113.78;;
